createdAt,value
2018-07-17T00:03:03.145Z,0
2018-07-17T00:13:03.295Z,0
2018-07-17T00:23:03.074Z,0
2018-07-17T00:33:34.605Z,0
2018-07-17T00:43:11.751Z,0
2018-07-17T00:53:03.154Z,0
2018-07-17T01:03:03.147Z,0
2018-07-17T01:13:03.155Z,0
2018-07-17T01:23:03.191Z,0
2018-07-17T01:33:03.268Z,0
2018-07-17T01:43:03.649Z,0
2018-07-17T01:53:03.151Z,0
2018-07-17T02:03:03.399Z,0
2018-07-17T02:13:03.311Z,0
2018-07-17T02:23:03.128Z,0
2018-07-17T02:33:03.118Z,0
2018-07-17T02:43:03.177Z,0
2018-07-17T02:53:03.165Z,0
2018-07-17T03:03:03.173Z,0
2018-07-17T03:13:03.149Z,0
2018-07-17T03:29:30.105Z,5
2018-07-17T03:33:03.218Z,5
2018-07-17T03:43:03.096Z,10
2018-07-17T03:53:03.039Z,20
2018-07-17T04:03:03.193Z,25
2018-07-17T04:13:03.064Z,40
2018-07-17T04:23:03.180Z,50
2018-07-17T04:33:03.168Z,60
2018-07-17T04:43:03.082Z,65
2018-07-17T04:53:03.158Z,75
2018-07-17T05:03:03.160Z,85
2018-07-17T05:13:03.309Z,95
2018-07-17T05:23:03.350Z,115
2018-07-17T05:33:03.081Z,115
2018-07-17T05:43:03.175Z,120
2018-07-17T05:53:03.109Z,135
2018-07-17T06:03:03.246Z,155
2018-07-17T06:13:03.159Z,210
2018-07-17T06:23:03.322Z,255
2018-07-17T06:33:03.470Z,265
2018-07-17T06:43:03.292Z,285
2018-07-17T06:53:03.120Z,300
2018-07-17T07:03:03.305Z,315
2018-07-17T07:13:03.098Z,330
2018-07-17T07:23:03.232Z,345
2018-07-17T07:33:03.198Z,355
2018-07-17T07:43:03.159Z,365
2018-07-17T07:53:03.130Z,365
2018-07-17T08:03:03.873Z,370
2018-07-17T08:13:03.353Z,375
2018-07-17T08:23:03.333Z,375
2018-07-17T08:33:03.371Z,365
2018-07-17T08:43:03.160Z,360
2018-07-17T08:53:03.323Z,335
2018-07-17T09:03:06.299Z,280
2018-07-17T09:13:03.191Z,230
2018-07-17T09:23:03.166Z,225
2018-07-17T09:33:03.128Z,215
2018-07-17T09:43:03.189Z,220
2018-07-17T09:53:03.251Z,220
2018-07-17T10:03:03.153Z,235
2018-07-17T10:13:03.140Z,265
2018-07-17T10:23:03.199Z,260
2018-07-17T10:33:03.167Z,215
2018-07-17T10:43:03.164Z,195
2018-07-17T10:53:03.222Z,195
2018-07-17T11:03:03.150Z,180
2018-07-17T11:13:03.174Z,185
2018-07-17T11:23:03.215Z,180
2018-07-17T11:33:03.131Z,180
2018-07-17T11:43:03.236Z,175
2018-07-17T11:53:03.188Z,175
2018-07-17T12:03:03.196Z,185
2018-07-17T12:13:03.429Z,170
2018-07-17T12:23:03.163Z,145
2018-07-17T12:33:03.198Z,185
2018-07-17T12:43:03.208Z,210
2018-07-17T12:53:03.201Z,180
2018-07-17T13:03:03.164Z,155
2018-07-17T13:13:03.342Z,210
2018-07-17T13:23:03.232Z,180
2018-07-17T13:33:03.292Z,205
2018-07-17T13:43:03.266Z,200
2018-07-17T13:53:03.234Z,170
2018-07-17T14:03:03.173Z,145
2018-07-17T14:13:03.191Z,150
2018-07-17T14:23:03.375Z,155
2018-07-17T14:33:03.873Z,145
2018-07-17T14:43:05.124Z,165
2018-07-17T14:53:03.411Z,115
2018-07-17T15:03:03.577Z,105
2018-07-17T15:13:03.681Z,155
2018-07-17T15:23:03.485Z,150
2018-07-17T15:33:03.457Z,165
2018-07-17T15:43:03.447Z,135
2018-07-17T15:53:03.366Z,165
2018-07-17T16:03:03.715Z,120
2018-07-17T16:13:03.470Z,115
2018-07-17T16:23:03.512Z,115
2018-07-17T16:33:03.594Z,110
2018-07-17T16:43:03.728Z,110
2018-07-17T16:53:03.433Z,105
2018-07-17T17:03:03.302Z,105
2018-07-17T17:13:03.359Z,100
2018-07-17T17:23:03.894Z,90
2018-07-17T17:33:03.471Z,90
2018-07-17T17:43:03.653Z,85
2018-07-17T17:53:03.703Z,85
2018-07-17T18:03:03.666Z,85
2018-07-17T18:13:03.758Z,70
2018-07-17T18:23:03.735Z,65
2018-07-17T18:33:03.521Z,65
2018-07-17T18:43:03.584Z,50
2018-07-17T18:53:03.675Z,30
2018-07-17T19:03:03.357Z,25
2018-07-17T19:13:03.971Z,20
2018-07-17T19:23:05.965Z,10
2018-07-17T19:33:03.394Z,5
2018-07-17T19:43:03.434Z,5
2018-07-17T19:53:03.503Z,0
2018-07-17T20:03:03.425Z,0
2018-07-17T20:13:03.674Z,0
2018-07-17T20:23:03.801Z,0
2018-07-17T20:33:03.381Z,0
2018-07-17T20:43:03.426Z,0
2018-07-17T20:53:03.499Z,0
2018-07-17T21:03:03.269Z,0
2018-07-17T21:13:03.496Z,0
2018-07-17T21:23:03.792Z,0
2018-07-17T21:33:03.584Z,0
2018-07-17T21:43:03.869Z,0
2018-07-17T21:53:04.446Z,0
2018-07-17T22:03:05.664Z,0
2018-07-17T22:13:04.776Z,0
2018-07-17T22:23:04.015Z,0
2018-07-17T22:33:03.512Z,0
2018-07-17T22:43:03.414Z,0
2018-07-17T22:53:03.430Z,0
2018-07-17T23:03:03.439Z,0
2018-07-17T23:13:04.406Z,0
2018-07-17T23:23:03.436Z,0
2018-07-17T23:33:03.348Z,0
2018-07-17T23:43:03.535Z,0
2018-07-17T23:53:03.369Z,0
